TimePDT,TemperatureF,Dew PointF,Humidity,Sea Level PressureIn,VisibilityMPH,Wind Direction,Wind SpeedMPH,Gust SpeedMPH,PrecipitationIn,Events,Conditions,WindDirDegrees,DateUTC
12:53 AM,59.0,21.9,24,29.95,10.0,North,17.3,26.5,N/A,,Clear,360,2013-05-22 07:53:00
1:53 AM,57.0,21.9,26,29.96,10.0,North,19.6,27.6,N/A,,Clear,350,2013-05-22 08:53:00
2:53 AM,55.0,25.0,31,29.97,10.0,North,16.1,-,N/A,,Clear,350,2013-05-22 09:53:00
3:53 AM,53.1,25.0,34,29.97,10.0,NNW,12.7,-,N/A,,Clear,340,2013-05-22 10:53:00
4:53 AM,50.0,25.0,38,29.97,10.0,NNW,6.9,-,N/A,,Clear,330,2013-05-22 11:53:00
5:53 AM,51.1,21.9,32,29.97,10.0,NNW,12.7,20.7,N/A,,Clear,330,2013-05-22 12:53:00
6:53 AM,52.0,24.1,34,29.98,10.0,NNW,10.4,-,N/A,,Clear,340,2013-05-22 13:53:00
7:53 AM,55.0,23.0,29,29.99,10.0,NNW,17.3,26.5,N/A,,Clear,340,2013-05-22 14:53:00
8:53 AM,57.0,23.0,27,29.99,10.0,NW,20.7,27.6,N/A,,Clear,320,2013-05-22 15:53:00
9:53 AM,60.1,23.0,24,29.99,10.0,North,17.3,25.3,N/A,,Clear,350,2013-05-22 16:53:00
10:53 AM,64.0,23.0,21,29.97,10.0,NW,16.1,20.7,N/A,,Clear,320,2013-05-22 17:53:00
11:53 AM,64.9,19.9,18,29.97,10.0,NW,17.3,24.2,N/A,,Clear,310,2013-05-22 18:53:00
12:53 PM,68.0,19.9,16,29.95,10.0,NW,13.8,18.4,N/A,,Clear,320,2013-05-22 19:53:00
1:53 PM,71.1,16.0,12,29.93,10.0,NNW,15.0,21.9,N/A,,Clear,340,2013-05-22 20:53:00
2:53 PM,71.1,12.0,10,29.91,10.0,West,11.5,26.5,N/A,,Clear,280,2013-05-22 21:53:00
3:53 PM,73.0,10.9,9,29.90,10.0,WNW,13.8,20.7,N/A,,Clear,300,2013-05-22 22:53:00
4:53 PM,72.0,10.0,9,29.88,10.0,Calm,Calm,-,N/A,,Clear,0,2013-05-22 23:53:00
5:53 PM,72.0,9.0,9,29.87,10.0,West,8.1,-,N/A,,Clear,260,2013-05-23 00:53:00
6:53 PM,68.0,34.0,28,29.86,10.0,WSW,12.7,-,N/A,,Clear,240,2013-05-23 01:53:00
7:53 PM,64.0,34.0,33,29.86,10.0,SW,13.8,19.6,N/A,,Clear,220,2013-05-23 02:53:00
8:53 PM,60.1,39.0,46,29.86,10.0,SW,11.5,-,N/A,,Clear,220,2013-05-23 03:53:00
9:53 PM,57.0,41.0,55,29.86,10.0,SW,9.2,-,N/A,,Clear,220,2013-05-23 04:53:00
10:53 PM,55.0,41.0,59,29.87,10.0,SW,8.1,-,N/A,,Clear,220,2013-05-23 05:53:00
11:53 PM,54.0,39.9,59,29.87,10.0,SW,9.2,-,N/A,,Clear,220,2013-05-23 06:53:00